createdAt,value
2018-06-25T00:00:40.719Z,73.00
2018-06-25T00:03:08.026Z,73.00
2018-06-25T00:05:35.349Z,73.20
2018-06-25T00:08:02.634Z,72.90
2018-06-25T00:10:29.947Z,73.10
2018-06-25T00:12:57.240Z,73.30
2018-06-25T00:15:24.546Z,73.40
2018-06-25T00:17:51.847Z,73.70
2018-06-25T00:20:19.171Z,73.90
2018-06-25T00:22:46.498Z,74.00
2018-06-25T00:25:13.864Z,73.90
2018-06-25T00:27:41.169Z,73.80
2018-06-25T00:30:08.475Z,73.70
2018-06-25T00:32:35.791Z,73.60
2018-06-25T00:35:03.102Z,73.50
2018-06-25T00:37:30.472Z,73.30
2018-06-25T00:39:57.772Z,73.30
2018-06-25T00:42:25.262Z,73.90
2018-06-25T00:44:52.602Z,73.90
2018-06-25T00:47:19.895Z,73.90
2018-06-25T00:49:47.208Z,73.80
2018-06-25T00:52:14.515Z,73.70
2018-06-25T00:54:41.814Z,73.90
2018-06-25T00:57:09.182Z,74.40
2018-06-25T00:59:49.838Z,74.40
2018-06-25T01:02:17.168Z,74.30
2018-06-25T01:04:44.486Z,74.00
2018-06-25T01:07:11.795Z,74.20
2018-06-25T01:09:39.108Z,75.00
2018-06-25T01:12:06.432Z,75.50
2018-06-25T01:14:33.715Z,75.70
2018-06-25T01:17:01.032Z,75.60
2018-06-25T01:19:28.354Z,75.30
2018-06-25T01:21:55.657Z,75.50
2018-06-25T01:24:22.967Z,75.90
2018-06-25T01:26:50.268Z,75.60
2018-06-25T01:29:17.571Z,75.30
2018-06-25T01:31:44.890Z,75.10
2018-06-25T01:34:12.271Z,75.10
2018-06-25T01:36:39.587Z,75.40
2018-06-25T01:39:07.275Z,75.80
2018-06-25T01:41:34.745Z,76.30
2018-06-25T01:44:02.039Z,76.70
2018-06-25T01:46:29.334Z,76.90
2018-06-25T01:48:56.652Z,76.70
2018-06-25T01:51:23.989Z,76.50
2018-06-25T01:53:51.323Z,76.30
2018-06-25T01:56:18.634Z,76.70
2018-06-25T01:58:45.954Z,76.90
2018-06-25T02:01:13.729Z,77.10
2018-06-25T02:03:40.994Z,77.50
2018-06-25T02:06:08.321Z,77.80
2018-06-25T02:08:35.602Z,77.80
2018-06-25T02:11:02.910Z,77.40
2018-06-25T02:13:30.228Z,77.20
2018-06-25T02:15:57.542Z,76.90
2018-06-25T02:18:24.838Z,76.70
2018-06-25T02:20:52.179Z,76.70
2018-06-25T02:23:19.492Z,77.00
2018-06-25T02:25:46.804Z,76.80
2018-06-25T02:28:14.113Z,77.00
2018-06-25T02:30:41.407Z,76.80
2018-06-25T02:33:08.751Z,76.90
2018-06-25T02:35:36.067Z,76.80
2018-06-25T02:38:03.566Z,76.60
2018-06-25T02:40:30.881Z,76.40
2018-06-25T02:45:25.652Z,77.20
2018-06-25T02:47:52.938Z,77.30
2018-06-25T02:50:20.260Z,77.50
2018-06-25T02:55:14.891Z,78.00
2018-06-25T02:57:42.229Z,78.10
2018-06-25T03:00:09.518Z,77.90
2018-06-25T03:02:36.909Z,77.70
2018-06-25T03:05:04.222Z,77.20
2018-06-25T03:07:31.569Z,77.10
2018-06-25T03:09:58.897Z,77.30
2018-06-25T03:12:26.187Z,77.20
2018-06-25T03:14:53.497Z,77.00
2018-06-25T03:17:20.923Z,77.20
2018-06-25T03:19:48.247Z,77.40
2018-06-25T03:22:15.585Z,77.60
2018-06-25T03:24:42.882Z,77.30
2018-06-25T03:27:10.182Z,77.30
2018-06-25T03:29:37.509Z,76.90
2018-06-25T03:32:04.812Z,77.40
2018-06-25T03:34:32.103Z,77.70
2018-06-25T03:36:59.421Z,77.90
2018-06-25T03:39:27.241Z,77.70
2018-06-25T03:41:54.576Z,77.20
2018-06-25T03:44:21.940Z,77.20
2018-06-25T03:46:49.248Z,77.20
2018-06-25T03:51:43.724Z,77.20
2018-06-25T03:54:11.035Z,77.10
2018-06-25T03:59:05.530Z,76.90
2018-06-25T04:01:32.853Z,76.70
2018-06-25T04:04:00.135Z,76.60
2018-06-25T04:06:27.459Z,76.40
2018-06-25T04:13:50.168Z,75.50
2018-06-25T04:16:17.519Z,75.70
2018-06-25T04:18:44.844Z,75.60
2018-06-25T04:21:12.179Z,75.80
2018-06-25T04:23:39.521Z,75.70
2018-06-25T04:26:06.800Z,75.50
2018-06-25T04:28:34.237Z,75.60
2018-06-25T04:31:01.533Z,75.40
2018-06-25T04:36:10.584Z,75.50
2018-06-25T04:38:37.940Z,76.40
2018-06-25T04:41:05.354Z,77.10
2018-06-25T04:43:32.683Z,77.20
2018-06-25T04:46:00.038Z,77.30
2018-06-25T04:48:27.376Z,77.40
2018-06-25T04:50:54.703Z,77.70
2018-06-25T04:53:22.116Z,77.70
2018-06-25T04:55:49.416Z,77.70
2018-06-25T04:58:16.763Z,77.90
2018-06-25T05:00:44.073Z,78.10
2018-06-25T05:03:11.376Z,78.40
2018-06-25T05:05:38.727Z,78.30
2018-06-25T05:08:06.149Z,78.20
2018-06-25T05:10:33.515Z,77.40
2018-06-25T05:13:00.791Z,77.50
2018-06-25T05:15:28.093Z,77.10
2018-06-25T05:17:55.412Z,76.70
2018-06-25T05:20:22.745Z,76.80
2018-06-25T05:22:50.151Z,76.90
2018-06-25T05:25:17.460Z,76.40
2018-06-25T05:27:44.805Z,76.10
2018-06-25T05:30:12.092Z,75.50
2018-06-25T05:32:39.439Z,75.20
2018-06-25T05:35:06.820Z,75.10
2018-06-25T05:37:34.153Z,75.30
2018-06-25T05:42:28.705Z,74.60
2018-06-25T05:44:56.044Z,74.70
2018-06-25T05:47:23.344Z,74.90
2018-06-25T05:49:50.670Z,74.70
2018-06-25T05:52:18.015Z,74.70
2018-06-25T05:54:45.400Z,74.90
2018-06-25T05:57:12.904Z,75.50
2018-06-25T05:59:40.195Z,75.60
2018-06-25T06:02:07.538Z,75.00
2018-06-25T06:04:34.936Z,75.60
2018-06-25T06:07:02.271Z,75.80
2018-06-25T06:09:29.662Z,75.30
2018-06-25T06:11:57.008Z,75.20
2018-06-25T06:14:24.341Z,75.10
2018-06-25T06:16:51.668Z,74.90
2018-06-25T06:19:19.020Z,74.80
2018-06-25T06:21:46.325Z,75.70
2018-06-25T06:24:13.771Z,76.40
2018-06-25T06:26:41.237Z,76.70
2018-06-25T06:29:08.548Z,76.10
2018-06-25T06:31:35.892Z,75.10
2018-06-25T06:34:03.263Z,74.30
2018-06-25T06:36:30.563Z,74.20
2018-06-25T06:38:57.888Z,74.30
2018-06-25T06:41:25.263Z,74.00
2018-06-25T06:43:52.609Z,73.60
2018-06-25T06:46:19.972Z,72.80
2018-06-25T06:48:47.657Z,73.10
2018-06-25T06:51:15.012Z,72.80
2018-06-25T06:53:42.395Z,73.50
2018-06-25T06:56:09.751Z,73.20
2018-06-25T06:58:37.064Z,73.60
2018-06-25T07:01:04.399Z,74.00
2018-06-25T07:03:31.695Z,73.70
2018-06-25T07:05:59.116Z,72.60
2018-06-25T07:08:26.443Z,72.60
2018-06-25T07:10:53.870Z,71.70
2018-06-25T07:13:21.204Z,71.90
2018-06-25T07:15:48.529Z,71.50
2018-06-25T07:18:15.920Z,70.70
2018-06-25T07:20:43.290Z,70.90
2018-06-25T07:23:10.648Z,70.20
2018-06-25T07:25:38.043Z,70.60
2018-06-25T07:28:05.746Z,70.90
2018-06-25T07:30:33.058Z,71.70
2018-06-25T07:33:00.384Z,71.10
2018-06-25T07:35:27.732Z,71.20
2018-06-25T07:37:55.095Z,70.70
2018-06-25T07:40:22.452Z,70.50
2018-06-25T07:42:49.754Z,71.60
2018-06-25T07:45:17.158Z,72.30
2018-06-25T07:47:44.479Z,71.80
2018-06-25T07:50:11.795Z,71.70
2018-06-25T07:52:39.134Z,70.60
2018-06-25T07:55:06.491Z,70.20
2018-06-25T07:57:33.870Z,69.20
2018-06-25T08:00:01.347Z,69.00
2018-06-25T08:02:28.760Z,68.60
2018-06-25T08:04:56.132Z,69.20
2018-06-25T08:07:23.429Z,69.00
2018-06-25T08:09:50.779Z,68.10
2018-06-25T08:12:18.118Z,67.00
2018-06-25T08:14:45.436Z,67.30
2018-06-25T08:17:12.755Z,68.00
2018-06-25T08:19:40.055Z,68.40
2018-06-25T08:22:07.459Z,67.90
2018-06-25T08:24:34.769Z,68.10
2018-06-25T08:27:02.115Z,66.90
2018-06-25T08:29:29.448Z,67.10
2018-06-25T08:31:56.763Z,65.20
2018-06-25T08:34:24.272Z,65.20
2018-06-25T08:36:51.416Z,64.90
2018-06-25T08:39:18.756Z,65.40
2018-06-25T08:41:46.184Z,65.10
2018-06-25T08:44:13.570Z,64.90
2018-06-25T08:46:40.892Z,65.00
2018-06-25T08:49:08.227Z,64.70
2018-06-25T08:51:35.552Z,63.40
2018-06-25T08:54:02.896Z,64.00
2018-06-25T08:56:30.271Z,63.80
2018-06-25T08:58:57.617Z,62.20
2018-06-25T09:01:24.959Z,62.50
2018-06-25T09:03:52.304Z,62.10
2018-06-25T09:08:47.027Z,63.00
2018-06-25T09:11:14.350Z,63.70
2018-06-25T09:13:41.662Z,63.90
2018-06-25T09:16:08.983Z,64.20
2018-06-25T09:18:36.371Z,64.70
2018-06-25T09:21:03.787Z,65.20
2018-06-25T09:23:31.124Z,64.50
2018-06-25T09:25:58.484Z,64.70
2018-06-25T09:28:25.842Z,64.20
2018-06-25T09:30:53.147Z,64.30
2018-06-25T09:33:20.843Z,64.30
2018-06-25T09:35:48.195Z,64.60
2018-06-25T09:38:15.711Z,63.80
2018-06-25T09:40:43.158Z,64.20
2018-06-25T09:43:10.529Z,64.00
2018-06-25T09:45:37.864Z,64.00
2018-06-25T09:48:05.700Z,63.40
2018-06-25T09:50:33.139Z,63.70
2018-06-25T09:55:27.675Z,63.60
2018-06-25T09:57:55.009Z,63.90
2018-06-25T10:00:22.349Z,63.70
2018-06-25T10:02:49.698Z,63.60
2018-06-25T10:05:17.197Z,63.60
2018-06-25T10:07:44.607Z,63.70
2018-06-25T10:10:11.920Z,63.80
2018-06-25T10:12:39.312Z,64.00
2018-06-25T10:15:06.640Z,64.60
2018-06-25T10:17:34.019Z,64.90
2018-06-25T10:20:01.404Z,64.50
2018-06-25T10:22:28.761Z,64.70
2018-06-25T10:24:56.062Z,65.40
2018-06-25T10:27:23.424Z,65.00
2018-06-25T10:29:50.845Z,65.10
2018-06-25T10:32:18.176Z,63.40
2018-06-25T10:34:45.602Z,64.20
2018-06-25T10:37:12.860Z,63.20
2018-06-25T10:39:40.195Z,63.10
2018-06-25T10:42:07.547Z,63.40
2018-06-25T10:44:34.961Z,63.60
2018-06-25T10:47:02.252Z,63.00
2018-06-25T10:49:29.587Z,61.60
2018-06-25T10:51:56.878Z,60.80
2018-06-25T10:54:24.332Z,61.10
2018-06-25T10:56:51.715Z,60.50
2018-06-25T10:59:19.042Z,60.80
2018-06-25T11:01:46.351Z,61.10
2018-06-25T11:04:13.703Z,61.20
2018-06-25T11:06:41.061Z,62.00
2018-06-25T11:09:08.624Z,62.10
2018-06-25T11:14:03.210Z,62.60
2018-06-25T11:16:30.571Z,63.10
2018-06-25T11:18:58.009Z,62.60
2018-06-25T11:21:25.319Z,61.30
2018-06-25T11:23:52.667Z,60.40
2018-06-25T11:26:19.984Z,60.20
2018-06-25T11:31:15.144Z,59.70
2018-06-25T11:33:42.584Z,59.90
2018-06-25T11:36:09.901Z,59.70
2018-06-25T11:38:37.328Z,60.50
2018-06-25T11:41:04.767Z,60.70
2018-06-25T11:43:32.107Z,59.90
2018-06-25T11:45:59.556Z,59.60
2018-06-25T11:50:54.092Z,58.00
2018-06-25T11:53:21.438Z,58.70
2018-06-25T11:55:48.784Z,59.00
2018-06-25T11:58:16.149Z,58.00
2018-06-25T12:00:43.460Z,59.00
2018-06-25T12:05:38.013Z,59.60
2018-06-25T12:08:05.351Z,59.80
2018-06-25T12:10:32.696Z,60.30
2018-06-25T12:13:00.032Z,59.80
2018-06-25T12:15:27.389Z,59.00
2018-06-25T12:17:54.726Z,58.10
2018-06-25T12:20:22.059Z,57.50
2018-06-25T12:22:49.425Z,57.70
2018-06-25T12:25:16.788Z,57.60
2018-06-25T12:27:44.330Z,57.30
2018-06-25T12:30:11.667Z,57.50
2018-06-25T12:32:39.148Z,56.70
2018-06-25T12:35:06.584Z,57.20
2018-06-25T12:37:33.840Z,58.60
2018-06-25T12:40:02.140Z,58.80
2018-06-25T12:42:29.467Z,59.30
2018-06-25T12:44:56.806Z,58.50
2018-06-25T12:47:24.121Z,58.00
2018-06-25T12:49:51.482Z,58.30
2018-06-25T12:54:46.005Z,57.70
2018-06-25T12:57:13.339Z,57.90
2018-06-25T12:59:40.703Z,58.20
2018-06-25T13:02:08.017Z,57.90
2018-06-25T13:04:35.353Z,57.60
2018-06-25T13:07:02.648Z,56.60
2018-06-25T13:09:29.966Z,57.30
2018-06-25T13:11:57.293Z,58.90
2018-06-25T13:14:24.657Z,58.80
2018-06-25T13:16:51.972Z,59.50
2018-06-25T13:19:19.391Z,59.60
2018-06-25T13:21:46.726Z,59.40
2018-06-25T13:24:14.047Z,59.40
2018-06-25T13:26:41.371Z,59.60
2018-06-25T13:29:08.826Z,58.70
2018-06-25T13:31:36.149Z,57.80
2018-06-25T13:34:03.449Z,57.60
2018-06-25T13:36:30.774Z,57.80
2018-06-25T13:38:58.104Z,57.30
2018-06-25T13:41:25.569Z,57.10
2018-06-25T13:43:52.812Z,56.00
2018-06-25T13:46:20.185Z,56.70
2018-06-25T13:48:47.535Z,57.10
2018-06-25T13:51:14.859Z,56.50
2018-06-25T13:53:42.196Z,56.80
2018-06-25T13:56:09.544Z,57.30
2018-06-25T13:58:36.927Z,58.10
2018-06-25T14:01:04.252Z,58.20
2018-06-25T14:03:31.608Z,58.00
2018-06-25T14:05:58.946Z,57.60
2018-06-25T14:08:26.263Z,57.10
2018-06-25T14:10:53.568Z,57.70
2018-06-25T14:13:20.898Z,56.80
2018-06-25T14:15:48.864Z,56.70
2018-06-25T14:18:16.376Z,57.20
2018-06-25T14:20:43.684Z,57.90
2018-06-25T14:23:11.047Z,57.90
2018-06-25T14:25:38.458Z,58.00
2018-06-25T14:28:05.769Z,58.20
2018-06-25T14:30:33.071Z,58.20
2018-06-25T14:33:00.403Z,58.30
2018-06-25T14:35:27.746Z,57.20
2018-06-25T14:37:55.063Z,56.20
2018-06-25T14:40:22.408Z,55.80
2018-06-25T14:42:49.784Z,56.20
2018-06-25T14:45:17.159Z,56.50
2018-06-25T14:47:44.472Z,56.60
2018-06-25T14:50:11.762Z,56.90
2018-06-25T14:52:39.095Z,56.60
2018-06-25T14:55:06.456Z,56.50
2018-06-25T14:57:33.760Z,56.60
2018-06-25T15:00:01.095Z,57.20
2018-06-25T15:02:28.396Z,57.80
2018-06-25T15:04:55.763Z,59.10
2018-06-25T15:07:23.105Z,60.30
2018-06-25T15:09:50.411Z,60.80
2018-06-25T15:12:17.843Z,61.00
2018-06-25T15:14:45.183Z,60.30
2018-06-25T15:17:12.479Z,60.30
2018-06-25T15:19:39.826Z,59.60
2018-06-25T15:22:07.135Z,58.90
2018-06-25T15:24:34.458Z,59.40
2018-06-25T15:29:28.996Z,60.40
2018-06-25T15:31:56.389Z,60.40
2018-06-25T15:34:23.700Z,60.40
2018-06-25T15:36:51.149Z,60.50
2018-06-25T15:39:18.542Z,60.10
2018-06-25T15:41:45.961Z,59.20
2018-06-25T15:44:13.316Z,59.40
2018-06-25T15:46:40.680Z,59.30
2018-06-25T15:49:08.024Z,59.10
2018-06-25T15:51:35.375Z,59.20
2018-06-25T15:54:02.681Z,59.70
2018-06-25T15:56:30.013Z,59.50
2018-06-25T15:58:57.396Z,59.40
2018-06-25T16:01:24.720Z,59.50
2018-06-25T16:03:52.056Z,59.20
2018-06-25T16:06:19.417Z,59.10
2018-06-25T16:08:46.775Z,58.50
2018-06-25T16:11:14.299Z,58.50
2018-06-25T16:13:41.629Z,59.00
2018-06-25T16:16:09.037Z,59.10
2018-06-25T16:18:36.389Z,58.90
2018-06-25T16:21:03.711Z,59.00
2018-06-25T16:23:31.048Z,58.20
2018-06-25T16:25:58.383Z,58.10
2018-06-25T16:28:25.849Z,57.20
2018-06-25T16:30:53.196Z,56.90
2018-06-25T16:33:20.603Z,56.40
2018-06-25T16:35:47.978Z,55.80
2018-06-25T16:38:15.458Z,55.20
2018-06-25T16:40:42.830Z,54.30
2018-06-25T16:43:10.920Z,53.20
2018-06-25T16:45:38.297Z,53.40
2018-06-25T16:48:05.618Z,53.70
2018-06-25T16:50:32.952Z,54.50
2018-06-25T16:53:00.293Z,54.10
2018-06-25T16:55:27.616Z,53.20
2018-06-25T16:57:54.980Z,53.10
2018-06-25T17:00:22.316Z,53.20
2018-06-25T17:02:49.726Z,53.10
2018-06-25T17:05:17.095Z,54.00
2018-06-25T17:07:44.444Z,54.50
2018-06-25T17:10:11.765Z,54.30
2018-06-25T17:12:39.123Z,54.40
2018-06-25T17:15:06.436Z,54.60
2018-06-25T17:17:33.776Z,55.70
2018-06-25T17:20:01.094Z,55.20
2018-06-25T17:22:28.575Z,55.70
2018-06-25T17:24:55.928Z,56.40
2018-06-25T17:27:23.263Z,56.10
2018-06-25T17:29:50.624Z,55.30
2018-06-25T17:32:18.713Z,54.80
2018-06-25T17:34:46.063Z,55.70
2018-06-25T17:37:13.392Z,56.70
2018-06-25T17:39:40.753Z,57.60
2018-06-25T17:42:08.057Z,58.40
2018-06-25T17:44:35.443Z,59.30
2018-06-25T17:47:02.864Z,59.50
2018-06-25T17:49:30.401Z,59.20
2018-06-25T17:51:57.696Z,59.90
2018-06-25T17:54:25.036Z,60.50
2018-06-25T17:56:52.360Z,61.10
2018-06-25T17:59:19.748Z,61.40
2018-06-25T18:01:47.064Z,60.60
2018-06-25T18:04:14.464Z,59.70
2018-06-25T18:06:41.785Z,59.40
2018-06-25T18:09:09.132Z,59.80
2018-06-25T18:11:36.571Z,61.20
2018-06-25T18:14:03.924Z,62.10
2018-06-25T18:16:31.376Z,63.10
2018-06-25T18:18:59.157Z,63.40
2018-06-25T18:21:26.667Z,63.20
2018-06-25T18:23:54.068Z,63.20
2018-06-25T18:26:21.404Z,63.60
2018-06-25T18:28:48.918Z,63.80
2018-06-25T18:31:16.285Z,63.80
2018-06-25T18:33:43.688Z,63.90
2018-06-25T18:36:11.002Z,63.80
2018-06-25T18:38:38.370Z,63.40
2018-06-25T18:41:05.695Z,63.30
2018-06-25T18:43:33.034Z,63.30
2018-06-25T18:48:27.665Z,63.30
2018-06-25T18:50:54.980Z,63.10
2018-06-25T18:53:22.374Z,63.00
2018-06-25T18:55:49.683Z,62.90
2018-06-25T18:58:17.248Z,62.90
2018-06-25T19:00:44.553Z,62.80
2018-06-25T19:03:11.897Z,62.70
2018-06-25T19:05:39.280Z,63.30
2018-06-25T19:08:06.560Z,63.40
2018-06-25T19:10:33.880Z,63.10
2018-06-25T19:13:01.206Z,63.50
2018-06-25T19:15:28.540Z,63.70
2018-06-25T19:17:55.877Z,63.60
2018-06-25T19:22:50.421Z,64.20
2018-06-25T19:25:17.732Z,64.30
2018-06-25T19:27:45.536Z,63.90
2018-06-25T19:30:12.933Z,64.40
2018-06-25T19:32:40.940Z,65.30
2018-06-25T19:35:08.272Z,65.40
2018-06-25T19:37:36.153Z,65.10
2018-06-25T19:40:03.814Z,65.30
2018-06-25T19:42:31.130Z,65.50
2018-06-25T19:44:58.942Z,65.60
2018-06-25T19:47:26.298Z,65.50
2018-06-25T19:49:53.592Z,65.50
2018-06-25T19:52:20.910Z,65.90
2018-06-25T19:54:48.219Z,66.00
2018-06-25T19:57:15.602Z,65.90
2018-06-25T19:59:42.924Z,66.00
2018-06-25T20:02:10.192Z,66.10
2018-06-25T20:04:37.660Z,66.30
2018-06-25T20:07:04.979Z,66.50
2018-06-25T20:09:32.299Z,66.70
2018-06-25T20:11:59.620Z,66.70
2018-06-25T20:14:26.929Z,66.90
2018-06-25T20:16:54.360Z,67.10
2018-06-25T20:19:21.719Z,67.40
2018-06-25T20:24:16.560Z,67.00
2018-06-25T20:26:43.912Z,66.80
2018-06-25T20:29:11.300Z,66.90
2018-06-25T20:31:38.588Z,67.00
2018-06-25T20:34:05.965Z,67.00
2018-06-25T20:36:33.257Z,66.90
2018-06-25T20:39:00.619Z,66.80
2018-06-25T20:41:27.974Z,67.20
2018-06-25T20:43:55.312Z,67.20
2018-06-25T20:46:22.817Z,67.10
2018-06-25T20:48:50.236Z,67.00
2018-06-25T20:51:17.635Z,67.30
2018-06-25T20:53:45.087Z,67.40
2018-06-25T20:58:39.743Z,67.60
2018-06-25T21:01:07.092Z,67.70
2018-06-25T21:03:34.485Z,67.60
2018-06-25T21:06:01.814Z,67.90
2018-06-25T21:08:29.168Z,68.30
2018-06-25T21:10:56.501Z,68.60
2018-06-25T21:13:23.828Z,68.50
2018-06-25T21:15:51.207Z,68.30
2018-06-25T21:18:18.537Z,68.40
2018-06-25T21:20:45.863Z,68.50
2018-06-25T21:23:13.192Z,68.40
2018-06-25T21:25:41.624Z,68.60
2018-06-25T21:28:09.467Z,68.60
2018-06-25T21:30:37.409Z,68.60
2018-06-25T21:33:04.820Z,68.50
2018-06-25T21:35:32.166Z,68.30
2018-06-25T21:37:59.544Z,68.30
2018-06-25T21:40:26.915Z,68.40
2018-06-25T21:42:54.237Z,68.40
2018-06-25T21:45:21.702Z,68.50
2018-06-25T21:50:33.616Z,68.60
2018-06-25T21:55:28.267Z,68.80
2018-06-25T21:57:55.620Z,68.60
2018-06-25T22:00:24.995Z,68.60
2018-06-25T22:02:52.360Z,68.50
2018-06-25T22:05:19.766Z,68.30
2018-06-25T22:07:47.199Z,68.20
2018-06-25T22:12:41.744Z,68.00
2018-06-25T22:15:09.060Z,68.10
2018-06-25T22:20:03.905Z,68.00
2018-06-25T22:24:58.438Z,67.90
2018-06-25T22:27:25.809Z,68.30
2018-06-25T22:32:20.307Z,68.30
2018-06-25T22:34:47.684Z,68.40
2018-06-25T22:37:15.054Z,68.10
2018-06-25T22:47:04.053Z,68.10
2018-06-25T22:49:31.420Z,68.10
2018-06-25T22:51:58.773Z,67.90
2018-06-25T22:56:53.278Z,68.50
2018-06-25T22:59:20.616Z,68.70
2018-06-25T23:09:14.144Z,68.20
2018-06-25T23:14:08.674Z,68.50
2018-06-25T23:19:03.551Z,68.40
2018-06-25T23:21:31.024Z,68.90
2018-06-25T23:23:58.325Z,68.60
2018-06-25T23:26:25.685Z,68.60
2018-06-25T23:28:53.036Z,68.60
2018-06-25T23:31:20.364Z,68.80
2018-06-25T23:36:14.891Z,68.40
2018-06-25T23:41:09.397Z,68.30
2018-06-25T23:43:36.730Z,67.90
2018-06-25T23:46:04.221Z,67.80
2018-06-25T23:48:31.578Z,67.80
2018-06-25T23:50:58.913Z,68.00
2018-06-25T23:53:26.248Z,68.30
2018-06-25T23:55:53.706Z,67.50
2018-06-25T23:58:21.048Z,67.40
